sensor_id;sensor_type;location;lat;lon;timestamp;temperature;humidity
34985;DHT22;21190;58.750;17.004;2022-09-17T00:02:17;10.40;99.90
34985;DHT22;21190;58.750;17.004;2022-09-17T00:04:46;10.40;99.90
34985;DHT22;21190;58.750;17.004;2022-09-17T00:07:13;10.40;99.90
34985;DHT22;21190;58.750;17.004;2022-09-17T00:09:40;10.40;99.90
34985;DHT22;21190;58.750;17.004;2022-09-17T00:12:06;10.40;99.90
34985;DHT22;21190;58.750;17.004;2022-09-17T00:14:33;10.40;99.90
34985;DHT22;21190;58.750;17.004;2022-09-17T00:17:01;10.40;99.90
34985;DHT22;21190;58.750;17.004;2022-09-17T00:19:27;10.40;99.90
34985;DHT22;21190;58.750;17.004;2022-09-17T00:21:54;10.40;99.90
34985;DHT22;21190;58.750;17.004;2022-09-17T00:24:21;10.40;99.90
34985;DHT22;21190;58.750;17.004;2022-09-17T00:26:48;10.40;99.90
34985;DHT22;21190;58.750;17.004;2022-09-17T00:29:15;10.40;99.90
34985;DHT22;21190;58.750;17.004;2022-09-17T00:31:42;10.40;99.90
34985;DHT22;21190;58.750;17.004;2022-09-17T00:34:09;10.50;99.90
34985;DHT22;21190;58.750;17.004;2022-09-17T00:36:38;10.50;99.90
34985;DHT22;21190;58.750;17.004;2022-09-17T00:39:06;10.50;99.90
34985;DHT22;21190;58.750;17.004;2022-09-17T00:41:34;10.50;99.90
34985;DHT22;21190;58.750;17.004;2022-09-17T00:44:37;10.60;99.90
34985;DHT22;21190;58.750;17.004;2022-09-17T00:46:48;10.50;99.90
34985;DHT22;21190;58.750;17.004;2022-09-17T00:49:33;10.40;99.90
34985;DHT22;21190;58.750;17.004;2022-09-17T00:52:03;10.40;99.90
34985;DHT22;21190;58.750;17.004;2022-09-17T00:54:30;10.40;99.90
34985;DHT22;21190;58.750;17.004;2022-09-17T00:56:58;10.50;99.90
34985;DHT22;21190;58.750;17.004;2022-09-17T00:59:25;10.40;99.90
34985;DHT22;21190;58.750;17.004;2022-09-17T01:01:52;10.50;99.90
34985;DHT22;21190;58.750;17.004;2022-09-17T01:04:20;10.40;99.90
34985;DHT22;21190;58.750;17.004;2022-09-17T01:09:25;10.50;99.90
34985;DHT22;21190;58.750;17.004;2022-09-17T01:25:16;10.60;99.90
34985;DHT22;21190;58.750;17.004;2022-09-17T01:27:57;10.70;99.90
34985;DHT22;21190;58.750;17.004;2022-09-17T01:30:30;10.70;99.90
34985;DHT22;21190;58.750;17.004;2022-09-17T01:35:51;10.80;99.90
34985;DHT22;21190;58.750;17.004;2022-09-17T01:43:28;10.80;99.90
34985;DHT22;21190;58.750;17.004;2022-09-17T01:45:56;10.80;99.90
34985;DHT22;21190;58.750;17.004;2022-09-17T01:48:30;10.80;99.90
34985;DHT22;21190;58.750;17.004;2022-09-17T01:51:13;10.70;99.90
34985;DHT22;21190;58.750;17.004;2022-09-17T01:53:46;10.70;99.90
34985;DHT22;21190;58.750;17.004;2022-09-17T01:56:17;10.70;99.90
34985;DHT22;21190;58.750;17.004;2022-09-17T01:58:47;10.70;99.90
34985;DHT22;21190;58.750;17.004;2022-09-17T02:01:16;10.60;99.90
34985;DHT22;21190;58.750;17.004;2022-09-17T02:03:53;10.60;99.90
34985;DHT22;21190;58.750;17.004;2022-09-17T02:06:25;10.60;99.90
34985;DHT22;21190;58.750;17.004;2022-09-17T02:08:56;10.60;99.90
34985;DHT22;21190;58.750;17.004;2022-09-17T02:11:24;10.50;99.90
34985;DHT22;21190;58.750;17.004;2022-09-17T02:14:08;10.60;99.90
34985;DHT22;21190;58.750;17.004;2022-09-17T02:16:38;10.60;99.90
34985;DHT22;21190;58.750;17.004;2022-09-17T02:19:09;10.50;99.90
34985;DHT22;21190;58.750;17.004;2022-09-17T02:21:40;10.50;99.90
34985;DHT22;21190;58.750;17.004;2022-09-17T02:26:36;10.60;99.90
34985;DHT22;21190;58.750;17.004;2022-09-17T02:29:07;10.60;99.90
34985;DHT22;21190;58.750;17.004;2022-09-17T02:31:35;10.50;99.90
34985;DHT22;21190;58.750;17.004;2022-09-17T02:34:02;10.50;99.90
34985;DHT22;21190;58.750;17.004;2022-09-17T02:36:30;10.50;99.90
34985;DHT22;21190;58.750;17.004;2022-09-17T02:38:58;10.50;99.90
34985;DHT22;21190;58.750;17.004;2022-09-17T02:47:03;10.40;99.90
34985;DHT22;21190;58.750;17.004;2022-09-17T02:49:38;10.40;99.90
34985;DHT22;21190;58.750;17.004;2022-09-17T03:00:27;10.40;99.90
34985;DHT22;21190;58.750;17.004;2022-09-17T03:03:02;10.50;99.90
34985;DHT22;21190;58.750;17.004;2022-09-17T03:05:31;10.40;99.90
34985;DHT22;21190;58.750;17.004;2022-09-17T03:07:59;10.40;99.90
34985;DHT22;21190;58.750;17.004;2022-09-17T03:10:26;10.30;99.90
34985;DHT22;21190;58.750;17.004;2022-09-17T03:12:59;10.30;99.90
34985;DHT22;21190;58.750;17.004;2022-09-17T03:15:26;10.30;99.90
34985;DHT22;21190;58.750;17.004;2022-09-17T03:17:53;10.20;99.90
34985;DHT22;21190;58.750;17.004;2022-09-17T03:20:21;10.20;99.90
34985;DHT22;21190;58.750;17.004;2022-09-17T03:22:47;10.20;99.90
34985;DHT22;21190;58.750;17.004;2022-09-17T03:25:14;10.10;99.90
34985;DHT22;21190;58.750;17.004;2022-09-17T03:27:41;10.10;99.90
34985;DHT22;21190;58.750;17.004;2022-09-17T03:30:08;10.20;99.90
34985;DHT22;21190;58.750;17.004;2022-09-17T03:32:35;10.20;99.90
34985;DHT22;21190;58.750;17.004;2022-09-17T03:35:02;10.20;99.90
34985;DHT22;21190;58.750;17.004;2022-09-17T03:37:29;10.20;99.90
34985;DHT22;21190;58.750;17.004;2022-09-17T03:39:58;10.30;99.90
34985;DHT22;21190;58.750;17.004;2022-09-17T03:42:25;10.30;99.90
34985;DHT22;21190;58.750;17.004;2022-09-17T03:44:52;10.30;99.90
34985;DHT22;21190;58.750;17.004;2022-09-17T03:47:19;10.30;99.90
34985;DHT22;21190;58.750;17.004;2022-09-17T03:49:46;10.20;99.90
34985;DHT22;21190;58.750;17.004;2022-09-17T03:52:13;10.30;99.90
34985;DHT22;21190;58.750;17.004;2022-09-17T03:54:40;10.20;99.90
34985;DHT22;21190;58.750;17.004;2022-09-17T03:57:07;10.20;99.90
34985;DHT22;21190;58.750;17.004;2022-09-17T03:59:33;10.30;99.90
34985;DHT22;21190;58.750;17.004;2022-09-17T04:02:00;10.30;99.90
34985;DHT22;21190;58.750;17.004;2022-09-17T04:04:27;10.20;99.90
34985;DHT22;21190;58.750;17.004;2022-09-17T04:06:54;10.20;99.90
34985;DHT22;21190;58.750;17.004;2022-09-17T04:09:21;10.20;99.90
34985;DHT22;21190;58.750;17.004;2022-09-17T04:11:48;10.20;99.90
34985;DHT22;21190;58.750;17.004;2022-09-17T04:14:15;10.20;99.90
34985;DHT22;21190;58.750;17.004;2022-09-17T04:16:42;10.10;99.90
34985;DHT22;21190;58.750;17.004;2022-09-17T04:19:08;10.20;99.90
34985;DHT22;21190;58.750;17.004;2022-09-17T04:21:35;10.20;99.90
34985;DHT22;21190;58.750;17.004;2022-09-17T04:24:02;10.10;99.90
34985;DHT22;21190;58.750;17.004;2022-09-17T04:26:29;10.10;99.90
34985;DHT22;21190;58.750;17.004;2022-09-17T04:28:56;10.20;99.90
34985;DHT22;21190;58.750;17.004;2022-09-17T04:31:23;10.10;99.90
34985;DHT22;21190;58.750;17.004;2022-09-17T04:33:52;10.10;99.90
34985;DHT22;21190;58.750;17.004;2022-09-17T04:36:19;10.20;99.90
34985;DHT22;21190;58.750;17.004;2022-09-17T04:38:47;10.20;99.90
34985;DHT22;21190;58.750;17.004;2022-09-17T04:41:14;10.20;99.90
34985;DHT22;21190;58.750;17.004;2022-09-17T04:43:41;10.20;99.90
34985;DHT22;21190;58.750;17.004;2022-09-17T04:46:08;10.10;99.90
34985;DHT22;21190;58.750;17.004;2022-09-17T04:48:35;10.10;99.90
34985;DHT22;21190;58.750;17.004;2022-09-17T04:51:02;10.10;99.90
34985;DHT22;21190;58.750;17.004;2022-09-17T04:53:29;10.10;99.90
34985;DHT22;21190;58.750;17.004;2022-09-17T04:55:56;10.10;99.90
34985;DHT22;21190;58.750;17.004;2022-09-17T04:58:23;10.10;99.90
34985;DHT22;21190;58.750;17.004;2022-09-17T05:00:50;10.10;99.90
34985;DHT22;21190;58.750;17.004;2022-09-17T05:03:17;10.00;99.90
34985;DHT22;21190;58.750;17.004;2022-09-17T05:05:44;10.00;99.90
34985;DHT22;21190;58.750;17.004;2022-09-17T05:08:11;10.10;99.90
34985;DHT22;21190;58.750;17.004;2022-09-17T05:10:38;10.10;99.90
34985;DHT22;21190;58.750;17.004;2022-09-17T05:13:05;10.10;99.90
34985;DHT22;21190;58.750;17.004;2022-09-17T05:15:32;10.10;99.90
34985;DHT22;21190;58.750;17.004;2022-09-17T05:17:59;10.10;99.90
34985;DHT22;21190;58.750;17.004;2022-09-17T05:20:26;10.10;99.90
34985;DHT22;21190;58.750;17.004;2022-09-17T05:22:53;10.00;99.90
34985;DHT22;21190;58.750;17.004;2022-09-17T05:25:20;10.10;99.90
34985;DHT22;21190;58.750;17.004;2022-09-17T05:27:51;10.10;99.90
34985;DHT22;21190;58.750;17.004;2022-09-17T05:30:18;10.10;99.90
34985;DHT22;21190;58.750;17.004;2022-09-17T05:32:45;10.10;99.90
34985;DHT22;21190;58.750;17.004;2022-09-17T05:35:12;10.10;99.90
34985;DHT22;21190;58.750;17.004;2022-09-17T05:37:39;10.00;99.90
34985;DHT22;21190;58.750;17.004;2022-09-17T05:40:07;10.00;99.90
34985;DHT22;21190;58.750;17.004;2022-09-17T05:42:34;10.00;99.90
34985;DHT22;21190;58.750;17.004;2022-09-17T05:45:01;10.10;99.90
34985;DHT22;21190;58.750;17.004;2022-09-17T05:47:28;10.10;99.90
34985;DHT22;21190;58.750;17.004;2022-09-17T05:49:55;10.10;99.90
34985;DHT22;21190;58.750;17.004;2022-09-17T05:52:25;10.20;99.90
34985;DHT22;21190;58.750;17.004;2022-09-17T05:54:51;10.20;99.90
34985;DHT22;21190;58.750;17.004;2022-09-17T05:57:19;10.20;99.90
34985;DHT22;21190;58.750;17.004;2022-09-17T05:59:46;10.20;99.90
34985;DHT22;21190;58.750;17.004;2022-09-17T06:02:12;10.30;99.90
34985;DHT22;21190;58.750;17.004;2022-09-17T06:04:39;10.30;99.90
34985;DHT22;21190;58.750;17.004;2022-09-17T06:07:06;10.40;99.90
34985;DHT22;21190;58.750;17.004;2022-09-17T06:09:35;10.40;99.90
34985;DHT22;21190;58.750;17.004;2022-09-17T06:12:03;10.40;99.90
34985;DHT22;21190;58.750;17.004;2022-09-17T06:14:30;10.50;99.90
34985;DHT22;21190;58.750;17.004;2022-09-17T06:16:57;10.50;99.90
34985;DHT22;21190;58.750;17.004;2022-09-17T06:19:24;10.60;99.90
34985;DHT22;21190;58.750;17.004;2022-09-17T06:21:51;10.60;99.90
34985;DHT22;21190;58.750;17.004;2022-09-17T06:24:18;10.70;99.90
34985;DHT22;21190;58.750;17.004;2022-09-17T06:26:44;10.80;99.90
34985;DHT22;21190;58.750;17.004;2022-09-17T06:29:11;10.90;99.90
34985;DHT22;21190;58.750;17.004;2022-09-17T06:31:40;10.80;99.90
34985;DHT22;21190;58.750;17.004;2022-09-17T06:34:10;10.90;99.90
34985;DHT22;21190;58.750;17.004;2022-09-17T06:36:37;11.00;99.90
34985;DHT22;21190;58.750;17.004;2022-09-17T06:39:04;11.00;99.90
34985;DHT22;21190;58.750;17.004;2022-09-17T06:41:31;11.20;99.90
34985;DHT22;21190;58.750;17.004;2022-09-17T06:43:58;11.30;99.90
34985;DHT22;21190;58.750;17.004;2022-09-17T06:46:26;11.40;99.90
34985;DHT22;21190;58.750;17.004;2022-09-17T06:48:53;11.50;99.90
34985;DHT22;21190;58.750;17.004;2022-09-17T06:51:20;11.60;99.90
34985;DHT22;21190;58.750;17.004;2022-09-17T06:53:48;11.60;99.90
34985;DHT22;21190;58.750;17.004;2022-09-17T06:56:15;11.70;99.90
34985;DHT22;21190;58.750;17.004;2022-09-17T06:58:42;11.70;99.90
34985;DHT22;21190;58.750;17.004;2022-09-17T07:01:10;11.80;99.90
34985;DHT22;21190;58.750;17.004;2022-09-17T07:03:37;11.90;99.90
34985;DHT22;21190;58.750;17.004;2022-09-17T07:06:06;11.90;99.90
34985;DHT22;21190;58.750;17.004;2022-09-17T07:08:35;12.00;99.90
34985;DHT22;21190;58.750;17.004;2022-09-17T07:11:03;12.10;99.90
34985;DHT22;21190;58.750;17.004;2022-09-17T07:13:30;12.10;99.90
34985;DHT22;21190;58.750;17.004;2022-09-17T07:15:58;12.10;99.90
34985;DHT22;21190;58.750;17.004;2022-09-17T07:18:25;12.20;99.90
34985;DHT22;21190;58.750;17.004;2022-09-17T07:20:53;12.30;99.90
34985;DHT22;21190;58.750;17.004;2022-09-17T07:23:24;12.30;99.90
34985;DHT22;21190;58.750;17.004;2022-09-17T07:25:53;12.40;99.90
34985;DHT22;21190;58.750;17.004;2022-09-17T07:28:21;12.50;99.90
34985;DHT22;21190;58.750;17.004;2022-09-17T07:30:48;12.50;99.90
34985;DHT22;21190;58.750;17.004;2022-09-17T07:33:17;12.50;99.90
34985;DHT22;21190;58.750;17.004;2022-09-17T07:35:51;12.60;99.90
34985;DHT22;21190;58.750;17.004;2022-09-17T07:38:18;12.70;99.90
34985;DHT22;21190;58.750;17.004;2022-09-17T07:41:02;12.70;99.90
34985;DHT22;21190;58.750;17.004;2022-09-17T07:43:30;12.70;99.90
34985;DHT22;21190;58.750;17.004;2022-09-17T07:45:58;12.80;99.90
34985;DHT22;21190;58.750;17.004;2022-09-17T07:48:25;12.80;99.90
34985;DHT22;21190;58.750;17.004;2022-09-17T07:50:53;12.90;99.90
34985;DHT22;21190;58.750;17.004;2022-09-17T07:53:20;12.80;99.90
34985;DHT22;21190;58.750;17.004;2022-09-17T07:55:52;12.90;99.90
34985;DHT22;21190;58.750;17.004;2022-09-17T07:58:20;13.00;99.90
34985;DHT22;21190;58.750;17.004;2022-09-17T08:00:47;13.10;99.90
34985;DHT22;21190;58.750;17.004;2022-09-17T08:03:14;13.10;99.90
34985;DHT22;21190;58.750;17.004;2022-09-17T08:05:41;13.20;99.90
34985;DHT22;21190;58.750;17.004;2022-09-17T08:08:10;13.30;99.90
34985;DHT22;21190;58.750;17.004;2022-09-17T08:10:37;13.40;99.90
34985;DHT22;21190;58.750;17.004;2022-09-17T08:13:04;13.50;99.90
34985;DHT22;21190;58.750;17.004;2022-09-17T08:15:31;13.50;99.90
34985;DHT22;21190;58.750;17.004;2022-09-17T08:17:58;13.50;99.90
34985;DHT22;21190;58.750;17.004;2022-09-17T08:20:25;13.50;99.90
34985;DHT22;21190;58.750;17.004;2022-09-17T08:22:58;13.30;99.90
34985;DHT22;21190;58.750;17.004;2022-09-17T08:25:26;13.20;99.90
34985;DHT22;21190;58.750;17.004;2022-09-17T08:27:53;13.20;99.90
34985;DHT22;21190;58.750;17.004;2022-09-17T08:30:21;13.40;99.90
34985;DHT22;21190;58.750;17.004;2022-09-17T08:32:48;13.40;99.90
34985;DHT22;21190;58.750;17.004;2022-09-17T08:35:15;13.40;99.90
34985;DHT22;21190;58.750;17.004;2022-09-17T08:37:42;13.50;99.90
34985;DHT22;21190;58.750;17.004;2022-09-17T08:40:12;13.50;99.90
34985;DHT22;21190;58.750;17.004;2022-09-17T08:42:52;13.60;99.90
34985;DHT22;21190;58.750;17.004;2022-09-17T08:45:22;13.60;99.90
34985;DHT22;21190;58.750;17.004;2022-09-17T08:47:49;13.60;99.90
34985;DHT22;21190;58.750;17.004;2022-09-17T08:50:26;13.70;99.90
34985;DHT22;21190;58.750;17.004;2022-09-17T08:55:25;13.70;99.90
34985;DHT22;21190;58.750;17.004;2022-09-17T09:03:31;13.80;99.90
34985;DHT22;21190;58.750;17.004;2022-09-17T09:06:03;13.80;99.90
34985;DHT22;21190;58.750;17.004;2022-09-17T09:11:10;13.80;99.90
34985;DHT22;21190;58.750;17.004;2022-09-17T09:13:45;13.90;99.90
34985;DHT22;21190;58.750;17.004;2022-09-17T09:16:15;13.90;99.90
34985;DHT22;21190;58.750;17.004;2022-09-17T09:18:43;13.90;99.90
34985;DHT22;21190;58.750;17.004;2022-09-17T09:21:29;13.90;99.90
34985;DHT22;21190;58.750;17.004;2022-09-17T09:24:02;13.80;99.90
34985;DHT22;21190;58.750;17.004;2022-09-17T09:26:48;13.80;99.90
34985;DHT22;21190;58.750;17.004;2022-09-17T09:34:20;14.00;99.90
34985;DHT22;21190;58.750;17.004;2022-09-17T09:36:49;14.10;99.90
34985;DHT22;21190;58.750;17.004;2022-09-17T09:39:23;14.20;99.90
34985;DHT22;21190;58.750;17.004;2022-09-17T09:41:53;14.10;99.90
34985;DHT22;21190;58.750;17.004;2022-09-17T09:44:22;14.20;99.90
34985;DHT22;21190;58.750;17.004;2022-09-17T09:46:53;14.20;99.90
34985;DHT22;21190;58.750;17.004;2022-09-17T09:49:35;14.10;99.90
34985;DHT22;21190;58.750;17.004;2022-09-17T09:52:19;14.20;99.90
34985;DHT22;21190;58.750;17.004;2022-09-17T09:58:16;14.20;99.90
34985;DHT22;21190;58.750;17.004;2022-09-17T10:02:52;14.10;99.90
34985;DHT22;21190;58.750;17.004;2022-09-17T10:05:20;14.20;99.90
34985;DHT22;21190;58.750;17.004;2022-09-17T10:07:47;14.30;99.90
34985;DHT22;21190;58.750;17.004;2022-09-17T10:10:14;14.50;99.90
34985;DHT22;21190;58.750;17.004;2022-09-17T10:12:41;14.50;99.90
34985;DHT22;21190;58.750;17.004;2022-09-17T10:15:23;14.50;99.90
34985;DHT22;21190;58.750;17.004;2022-09-17T10:20:36;14.40;99.90
34985;DHT22;21190;58.750;17.004;2022-09-17T10:23:14;14.50;99.90
34985;DHT22;21190;58.750;17.004;2022-09-17T10:25:41;14.40;99.90
34985;DHT22;21190;58.750;17.004;2022-09-17T10:28:28;14.40;99.90
34985;DHT22;21190;58.750;17.004;2022-09-17T10:31:03;14.50;99.90
34985;DHT22;21190;58.750;17.004;2022-09-17T10:33:35;14.30;99.90
34985;DHT22;21190;58.750;17.004;2022-09-17T10:36:04;14.30;99.90
34985;DHT22;21190;58.750;17.004;2022-09-17T10:38:36;14.40;99.90
34985;DHT22;21190;58.750;17.004;2022-09-17T10:43:36;14.40;99.90
34985;DHT22;21190;58.750;17.004;2022-09-17T10:46:03;14.40;99.90
34985;DHT22;21190;58.750;17.004;2022-09-17T10:48:31;14.50;99.90
34985;DHT22;21190;58.750;17.004;2022-09-17T10:50:59;14.60;99.90
34985;DHT22;21190;58.750;17.004;2022-09-17T10:53:28;14.60;99.90
34985;DHT22;21190;58.750;17.004;2022-09-17T11:12:22;14.60;99.90
34985;DHT22;21190;58.750;17.004;2022-09-17T11:28:01;14.60;99.90
34985;DHT22;21190;58.750;17.004;2022-09-17T11:30:38;14.60;99.90
34985;DHT22;21190;58.750;17.004;2022-09-17T11:35:47;14.50;99.90
34985;DHT22;21190;58.750;17.004;2022-09-17T11:38:17;14.50;99.90
34985;DHT22;21190;58.750;17.004;2022-09-17T11:53:44;14.70;99.90
34985;DHT22;21190;58.750;17.004;2022-09-17T11:56:24;14.80;99.90
34985;DHT22;21190;58.750;17.004;2022-09-17T11:59:08;14.80;99.90
34985;DHT22;21190;58.750;17.004;2022-09-17T12:05:24;14.80;99.90
34985;DHT22;21190;58.750;17.004;2022-09-17T12:12:54;14.70;99.90
34985;DHT22;21190;58.750;17.004;2022-09-17T12:15:23;14.70;99.90
34985;DHT22;21190;58.750;17.004;2022-09-17T12:17:53;14.80;99.90
34985;DHT22;21190;58.750;17.004;2022-09-17T12:20:44;14.70;99.90
34985;DHT22;21190;58.750;17.004;2022-09-17T12:23:13;14.80;99.90
34985;DHT22;21190;58.750;17.004;2022-09-17T12:25:46;14.80;99.90
34985;DHT22;21190;58.750;17.004;2022-09-17T12:28:20;14.80;99.90
34985;DHT22;21190;58.750;17.004;2022-09-17T12:30:55;14.80;99.90
34985;DHT22;21190;58.750;17.004;2022-09-17T12:33:33;14.90;99.90
34985;DHT22;21190;58.750;17.004;2022-09-17T12:36:20;15.00;99.90
34985;DHT22;21190;58.750;17.004;2022-09-17T12:44:15;15.20;99.90
34985;DHT22;21190;58.750;17.004;2022-09-17T12:52:02;15.40;99.90
34985;DHT22;21190;58.750;17.004;2022-09-17T12:57:01;15.60;99.90
34985;DHT22;21190;58.750;17.004;2022-09-17T12:59:32;15.70;99.90
34985;DHT22;21190;58.750;17.004;2022-09-17T13:07:33;15.40;99.90
34985;DHT22;21190;58.750;17.004;2022-09-17T13:17:59;15.10;99.90
34985;DHT22;21190;58.750;17.004;2022-09-17T13:21:03;15.10;99.90
34985;DHT22;21190;58.750;17.004;2022-09-17T13:23:35;15.10;99.90
34985;DHT22;21190;58.750;17.004;2022-09-17T13:26:03;15.00;99.90
34985;DHT22;21190;58.750;17.004;2022-09-17T13:31:18;15.10;99.90
34985;DHT22;21190;58.750;17.004;2022-09-17T13:33:58;15.00;99.90
34985;DHT22;21190;58.750;17.004;2022-09-17T13:36:38;15.00;99.90
34985;DHT22;21190;58.750;17.004;2022-09-17T13:39:10;14.80;99.90
34985;DHT22;21190;58.750;17.004;2022-09-17T13:41:38;14.80;99.90
34985;DHT22;21190;58.750;17.004;2022-09-17T13:44:07;14.60;99.90
34985;DHT22;21190;58.750;17.004;2022-09-17T13:46:34;14.50;99.90
34985;DHT22;21190;58.750;17.004;2022-09-17T13:49:03;14.50;99.90
34985;DHT22;21190;58.750;17.004;2022-09-17T13:53:59;14.60;99.90
34985;DHT22;21190;58.750;17.004;2022-09-17T13:56:28;14.60;99.90
34985;DHT22;21190;58.750;17.004;2022-09-17T13:59:07;14.60;99.90
34985;DHT22;21190;58.750;17.004;2022-09-17T14:06:59;14.70;99.90
34985;DHT22;21190;58.750;17.004;2022-09-17T14:09:34;14.80;99.90
34985;DHT22;21190;58.750;17.004;2022-09-17T14:12:21;14.90;99.90
34985;DHT22;21190;58.750;17.004;2022-09-17T14:14:49;14.90;99.90
34985;DHT22;21190;58.750;17.004;2022-09-17T14:20:03;15.10;99.90
34985;DHT22;21190;58.750;17.004;2022-09-17T14:22:31;15.10;99.90
34985;DHT22;21190;58.750;17.004;2022-09-17T14:24:58;15.00;99.90
34985;DHT22;21190;58.750;17.004;2022-09-17T14:30:14;15.10;99.90
34985;DHT22;21190;58.750;17.004;2022-09-17T14:35:25;15.10;99.90
34985;DHT22;21190;58.750;17.004;2022-09-17T14:37:58;15.00;99.90
34985;DHT22;21190;58.750;17.004;2022-09-17T14:40:26;15.00;99.90
34985;DHT22;21190;58.750;17.004;2022-09-17T14:42:55;15.00;99.90
34985;DHT22;21190;58.750;17.004;2022-09-17T14:45:25;15.00;99.90
34985;DHT22;21190;58.750;17.004;2022-09-17T14:50:38;14.90;99.90
34985;DHT22;21190;58.750;17.004;2022-09-17T14:53:11;14.80;99.90
34985;DHT22;21190;58.750;17.004;2022-09-17T14:55:40;14.90;99.90
34985;DHT22;21190;58.750;17.004;2022-09-17T14:58:21;15.00;99.90
34985;DHT22;21190;58.750;17.004;2022-09-17T15:00:51;15.00;99.90
34985;DHT22;21190;58.750;17.004;2022-09-17T15:03:21;15.00;99.90
34985;DHT22;21190;58.750;17.004;2022-09-17T15:05:49;15.00;99.90
34985;DHT22;21190;58.750;17.004;2022-09-17T15:08:19;15.00;99.90
34985;DHT22;21190;58.750;17.004;2022-09-17T15:10:56;14.90;99.90
34985;DHT22;21190;58.750;17.004;2022-09-17T15:13:30;14.80;99.90
34985;DHT22;21190;58.750;17.004;2022-09-17T15:18:35;14.90;99.90
34985;DHT22;21190;58.750;17.004;2022-09-17T15:21:03;14.80;99.90
34985;DHT22;21190;58.750;17.004;2022-09-17T15:23:32;14.80;99.90
34985;DHT22;21190;58.750;17.004;2022-09-17T15:26:00;14.80;99.90
34985;DHT22;21190;58.750;17.004;2022-09-17T15:28:35;14.80;99.90
34985;DHT22;21190;58.750;17.004;2022-09-17T15:31:04;14.70;99.90
34985;DHT22;21190;58.750;17.004;2022-09-17T15:33:32;14.70;99.90
34985;DHT22;21190;58.750;17.004;2022-09-17T15:36:00;14.80;99.90
34985;DHT22;21190;58.750;17.004;2022-09-17T15:38:28;14.70;99.90
34985;DHT22;21190;58.750;17.004;2022-09-17T15:40:56;14.80;99.90
34985;DHT22;21190;58.750;17.004;2022-09-17T15:43:36;14.70;99.90
34985;DHT22;21190;58.750;17.004;2022-09-17T15:46:24;14.70;99.90
34985;DHT22;21190;58.750;17.004;2022-09-17T15:48:53;14.70;99.90
34985;DHT22;21190;58.750;17.004;2022-09-17T15:51:27;14.60;99.90
34985;DHT22;21190;58.750;17.004;2022-09-17T15:53:58;14.60;99.90
34985;DHT22;21190;58.750;17.004;2022-09-17T15:56:27;14.60;99.90
34985;DHT22;21190;58.750;17.004;2022-09-17T15:59:01;14.70;99.90
34985;DHT22;21190;58.750;17.004;2022-09-17T16:09:34;14.70;99.90
34985;DHT22;21190;58.750;17.004;2022-09-17T16:12:03;14.70;99.90
34985;DHT22;21190;58.750;17.004;2022-09-17T16:14:30;14.70;99.90
34985;DHT22;21190;58.750;17.004;2022-09-17T16:16:57;14.60;99.90
34985;DHT22;21190;58.750;17.004;2022-09-17T16:19:25;14.60;99.90
34985;DHT22;21190;58.750;17.004;2022-09-17T16:21:52;14.50;99.90
34985;DHT22;21190;58.750;17.004;2022-09-17T16:24:19;14.60;99.90
34985;DHT22;21190;58.750;17.004;2022-09-17T16:26:45;14.60;99.90
34985;DHT22;21190;58.750;17.004;2022-09-17T16:29:14;14.50;99.90
34985;DHT22;21190;58.750;17.004;2022-09-17T16:31:41;14.60;99.90
34985;DHT22;21190;58.750;17.004;2022-09-17T16:34:08;14.60;99.90
34985;DHT22;21190;58.750;17.004;2022-09-17T16:36:35;14.50;99.90
34985;DHT22;21190;58.750;17.004;2022-09-17T16:39:26;14.50;99.90
34985;DHT22;21190;58.750;17.004;2022-09-17T16:41:52;14.50;99.90
34985;DHT22;21190;58.750;17.004;2022-09-17T16:44:19;14.40;99.90
34985;DHT22;21190;58.750;17.004;2022-09-17T16:46:46;14.40;99.90
34985;DHT22;21190;58.750;17.004;2022-09-17T16:49:13;14.30;99.90
34985;DHT22;21190;58.750;17.004;2022-09-17T16:51:40;14.30;99.90
34985;DHT22;21190;58.750;17.004;2022-09-17T16:54:07;14.10;99.90
34985;DHT22;21190;58.750;17.004;2022-09-17T16:56:34;14.10;99.90
34985;DHT22;21190;58.750;17.004;2022-09-17T16:59:01;14.10;99.90
34985;DHT22;21190;58.750;17.004;2022-09-17T17:01:28;14.10;99.90
34985;DHT22;21190;58.750;17.004;2022-09-17T17:03:55;14.10;99.90
34985;DHT22;21190;58.750;17.004;2022-09-17T17:06:25;14.10;99.90
34985;DHT22;21190;58.750;17.004;2022-09-17T17:08:52;14.00;99.90
34985;DHT22;21190;58.750;17.004;2022-09-17T17:11:19;14.00;99.90
34985;DHT22;21190;58.750;17.004;2022-09-17T17:13:46;14.00;99.90
34985;DHT22;21190;58.750;17.004;2022-09-17T17:16:13;13.80;99.90
34985;DHT22;21190;58.750;17.004;2022-09-17T17:18:41;13.70;99.90
34985;DHT22;21190;58.750;17.004;2022-09-17T17:21:09;13.60;99.90
34985;DHT22;21190;58.750;17.004;2022-09-17T17:23:36;13.50;99.90
34985;DHT22;21190;58.750;17.004;2022-09-17T17:26:03;13.40;99.90
34985;DHT22;21190;58.750;17.004;2022-09-17T17:28:31;13.30;99.90
34985;DHT22;21190;58.750;17.004;2022-09-17T17:30:58;13.30;99.90
34985;DHT22;21190;58.750;17.004;2022-09-17T17:33:25;13.30;99.90
34985;DHT22;21190;58.750;17.004;2022-09-17T17:35:52;13.30;99.90
34985;DHT22;21190;58.750;17.004;2022-09-17T17:38:18;13.30;99.90
34985;DHT22;21190;58.750;17.004;2022-09-17T17:40:45;13.30;99.90
34985;DHT22;21190;58.750;17.004;2022-09-17T17:43:13;13.30;99.90
34985;DHT22;21190;58.750;17.004;2022-09-17T17:45:39;13.30;99.90
34985;DHT22;21190;58.750;17.004;2022-09-17T17:48:06;13.20;99.90
34985;DHT22;21190;58.750;17.004;2022-09-17T17:50:33;13.20;99.90
34985;DHT22;21190;58.750;17.004;2022-09-17T17:53:00;13.20;99.90
34985;DHT22;21190;58.750;17.004;2022-09-17T17:55:27;13.20;99.90
34985;DHT22;21190;58.750;17.004;2022-09-17T17:57:54;13.20;99.90
34985;DHT22;21190;58.750;17.004;2022-09-17T18:00:26;13.20;99.90
34985;DHT22;21190;58.750;17.004;2022-09-17T18:02:53;13.10;99.90
34985;DHT22;21190;58.750;17.004;2022-09-17T18:05:20;13.20;99.90
34985;DHT22;21190;58.750;17.004;2022-09-17T18:07:47;13.10;99.90
34985;DHT22;21190;58.750;17.004;2022-09-17T18:10:15;13.10;99.90
34985;DHT22;21190;58.750;17.004;2022-09-17T18:12:42;13.10;99.90
34985;DHT22;21190;58.750;17.004;2022-09-17T18:15:15;13.00;99.90
34985;DHT22;21190;58.750;17.004;2022-09-17T18:17:42;13.00;99.90
34985;DHT22;21190;58.750;17.004;2022-09-17T18:20:09;12.90;99.90
34985;DHT22;21190;58.750;17.004;2022-09-17T18:22:36;12.90;99.90
34985;DHT22;21190;58.750;17.004;2022-09-17T18:25:03;12.90;99.90
34985;DHT22;21190;58.750;17.004;2022-09-17T18:27:30;12.90;99.90
34985;DHT22;21190;58.750;17.004;2022-09-17T18:29:57;12.80;99.90